Time;durP1;ratioP1;P1;durP2;ratioP2;P2;SDS_P1;SDS_P2;PMS_P1;PMS_P2;Temp;Humidity;BMP_temperature;BMP_pressure;BME280_temperature;BME280_humidity;BME280_pressure;Samples;Min_cycle;Max_cycle;Signal;HPM_P1;HPM_P2
2022/12/01 00:01:11;;;;;;;4.97;1.85;;;;;;;-0.28;74.84;102567.56;1769684;81;21561;-83
2022/12/01 00:03:38;;;;;;;6.05;1.77;;;;;;;-0.31;74.69;102575.80;1769427;81;21041;-83
2022/12/01 00:06:15;;;;;;;3.15;1.25;;;;;;;-0.33;74.65;102577.73;1769554;81;21620;-83
2022/12/01 00:11:27;;;;;;;4.05;1.57;;;;;;;-0.35;74.20;102581.03;1706081;84;21086;-84
2022/12/01 00:13:53;;;;;;;6.42;1.52;;;;;;;-0.30;73.16;102575.64;1706569;84;21100;-83
2022/12/01 00:16:21;;;;;;;3.98;1.52;;;;;;;-0.40;73.73;102578.78;1706233;84;21766;-83
2022/12/01 00:18:52;;;;;;;6.90;1.70;;;;;;;-0.39;73.89;102576.97;1676282;85;21057;-83
2022/12/01 00:21:21;;;;;;;4.75;1.50;;;;;;;-0.37;73.62;102593.56;1676603;85;21585;-83
2022/12/01 00:23:51;;;;;;;5.60;1.98;;;;;;;-0.38;73.53;102580.81;1676561;85;21077;-84
2022/12/01 00:26:19;;;;;;;5.60;1.75;;;;;;;-0.41;72.75;102575.80;1676497;85;21065;-83
2022/12/01 00:28:51;;;;;;;7.40;1.60;;;;;;;-0.44;73.14;102570.78;1693447;84;21089;-83
2022/12/01 00:31:18;;;;;;;6.37;1.77;;;;;;;-0.50;73.69;102585.41;1645062;86;21037;-83
2022/12/01 00:33:45;;;;;;;7.55;1.82;;;;;;;-0.48;72.84;102587.90;1645239;86;21518;-83
2022/12/01 00:36:11;;;;;;;5.95;2.00;;;;;;;-0.42;72.36;102585.19;1645099;86;21106;-83
2022/12/01 00:38:37;;;;;;;3.17;1.32;;;;;;;-0.50;73.14;102571.30;1645089;86;21862;-82
2022/12/01 00:41:04;;;;;;;4.45;1.65;;;;;;;-0.51;72.94;102575.77;1645014;86;21046;-83
2022/12/01 00:43:30;;;;;;;3.12;1.42;;;;;;;-0.59;73.70;102571.67;1644840;86;21120;-82
2022/12/01 00:45:56;;;;;;;6.17;1.90;;;;;;;-0.55;73.79;102570.41;1645239;87;21086;-83
2022/12/01 00:48:22;;;;;;;3.52;1.40;;;;;;;-0.50;72.75;102572.16;1645134;86;22528;-83
2022/12/01 00:50:51;;;;;;;6.53;1.60;;;;;;;-0.59;73.19;102569.02;1644991;86;21098;-83
2022/12/01 00:53:17;;;;;;;5.28;1.60;;;;;;;-0.55;72.72;102563.79;1598836;87;21653;-82
2022/12/01 00:55:43;;;;;;;11.05;1.75;;;;;;;-0.60;72.87;102558.55;1644847;86;21033;-82
2022/12/01 00:58:10;;;;;;;6.92;1.80;;;;;;;-0.53;71.84;102553.91;1644821;86;21179;-82
2022/12/01 01:00:38;;;;;;;5.83;1.70;;;;;;;-0.58;72.50;102560.59;1645250;86;20990;-85
2022/12/01 01:03:06;;;;;;;5.35;1.37;;;;;;;-0.61;72.93;102565.66;1644744;87;21141;-86
2022/12/01 01:05:37;;;;;;;6.67;1.77;;;;;;;-0.63;73.07;102562.31;1660307;84;21130;-85
2022/12/01 01:08:12;;;;;;;8.30;2.58;;;;;;;-0.61;72.77;102562.19;1667276;84;21113;-85
2022/12/01 01:10:41;;;;;;;5.72;1.57;;;;;;;-0.62;73.24;102556.52;1667377;84;21033;-86
2022/12/01 01:13:07;;;;;;;9.50;1.55;;;;;;;-0.65;73.24;102566.06;1608402;88;21064;-85
2022/12/01 01:15:34;;;;;;;9.83;1.67;;;;;;;-0.61;72.83;102564.34;1634984;86;21180;-86
2022/12/01 01:18:01;;;;;;;8.70;1.90;;;;;;;-0.65;73.05;102556.80;1666751;86;21062;-85
2022/12/01 01:20:27;;;;;;;6.47;1.75;;;;;;;-0.69;73.87;102558.40;1666737;86;21595;-85
2022/12/01 01:22:53;;;;;;;6.53;1.72;;;;;;;-0.64;73.44;102559.33;1666565;86;21042;-85
2022/12/01 01:25:19;;;;;;;10.15;2.30;;;;;;;-0.69;74.92;102554.92;1666826;86;21006;-85
2022/12/01 01:27:45;;;;;;;6.75;1.85;;;;;;;-0.64;73.42;102552.70;1682384;83;21011;-85
2022/12/01 01:30:12;;;;;;;6.83;2.00;;;;;;;-0.61;73.28;102550.27;1686667;84;21534;-85
2022/12/01 01:32:38;;;;;;;5.25;1.57;;;;;;;-0.71;73.31;102551.10;1676538;83;21025;-87
2022/12/01 01:35:05;;;;;;;5.92;1.82;;;;;;;-0.69;74.23;102549.13;1676143;84;20949;-85
2022/12/01 01:37:31;;;;;;;7.33;1.92;;;;;;;-0.67;74.10;102544.20;1676770;85;21120;-85
2022/12/01 01:39:57;;;;;;;5.33;1.42;;;;;;;-0.77;75.39;102542.84;1677223;85;20985;-85
2022/12/01 01:42:23;;;;;;;6.22;1.70;;;;;;;-0.66;74.94;102533.46;1677375;85;20910;-85
2022/12/01 01:44:58;;;;;;;6.00;1.72;;;;;;;-0.68;75.17;102535.41;1677370;85;20981;-86
2022/12/01 01:47:29;;;;;;;7.72;1.95;;;;;;;-0.69;74.00;102540.36;1677166;85;21096;-84
2022/12/01 01:49:59;;;;;;;4.75;1.70;;;;;;;-0.70;74.67;102541.34;1677075;85;21117;-82
2022/12/01 01:52:27;;;;;;;7.70;1.60;;;;;;;-0.74;74.55;102539.44;1677198;85;21081;-84
2022/12/01 01:54:54;;;;;;;6.75;1.75;;;;;;;-0.81;75.57;102533.03;1677234;85;21062;-84
2022/12/01 01:57:31;;;;;;;3.45;1.57;;;;;;;-0.86;76.59;102542.34;1677101;85;21525;-84
2022/12/01 02:00:08;;;;;;;4.35;1.92;;;;;;;-0.79;76.56;102534.23;1674777;85;21624;-85
2022/12/01 02:02:43;;;;;;;6.78;1.72;;;;;;;-0.78;76.22;102531.92;1646219;86;21522;-85
2022/12/01 02:05:23;;;;;;;5.90;1.60;;;;;;;-0.78;75.72;102535.89;1646493;87;21167;-83
2022/12/01 02:07:51;;;;;;;3.25;1.40;;;;;;;-0.86;77.57;102537.88;1625071;88;21031;-86
2022/12/01 02:10:22;;;;;;;9.25;1.72;;;;;;;-0.77;77.50;102530.44;1623164;88;21123;-84
2022/12/01 02:13:15;;;;;;;11.65;1.70;;;;;;;-0.90;79.41;102530.38;1621728;88;21093;-84
2022/12/01 02:16:08;;;;;;;3.55;1.40;;;;;;;-0.88;79.51;102537.66;1622171;88;21543;-84
2022/12/01 02:19:02;;;;;;;9.10;1.60;;;;;;;-0.84;78.95;102531.98;1623922;86;21475;-84
2022/12/01 02:21:39;;;;;;;4.15;1.60;;;;;;;-0.79;79.25;102543.49;1621642;88;21097;-86
2022/12/01 02:24:34;;;;;;;3.42;1.50;;;;;;;-0.93;79.71;102537.59;1621582;88;21037;-87
2022/12/01 02:27:39;;;;;;;4.47;1.60;;;;;;;-0.90;80.73;102527.23;1621999;87;21537;-85
2022/12/01 02:30:19;;;;;;;7.17;2.33;;;;;;;-0.96;81.33;102531.26;1646777;86;21541;-85
2022/12/01 02:33:05;;;;;;;5.72;1.80;;;;;;;-0.97;82.28;102539.31;1648443;86;21122;-85
2022/12/01 02:35:51;;;;;;;7.28;1.60;;;;;;;-0.94;82.12;102537.75;1650925;86;21113;-84
2022/12/01 02:38:40;;;;;;;5.95;1.55;;;;;;;-0.89;81.83;102536.00;1648299;86;21085;-85
2022/12/01 02:41:20;;;;;;;6.67;1.42;;;;;;;-0.98;83.78;102541.63;1651985;86;21051;-84
2022/12/01 02:44:03;;;;;;;6.17;1.70;;;;;;;-1.00;85.71;102536.48;1615245;88;21568;-84
2022/12/01 02:46:37;;;;;;;11.97;1.90;;;;;;;-0.97;85.05;102541.50;1529168;93;21132;-84
2022/12/01 02:49:24;;;;;;;5.08;1.80;;;;;;;-0.94;84.33;102534.61;1528701;93;21170;-84
2022/12/01 02:51:51;;;;;;;4.40;1.55;;;;;;;-1.01;86.75;102545.86;1488186;96;21071;-84
2022/12/01 02:54:19;;;;;;;4.37;1.40;;;;;;;-0.95;86.40;102546.64;1488285;96;21630;-84
2022/12/01 02:56:45;;;;;;;7.30;1.72;;;;;;;-0.98;88.20;102542.45;1488275;96;21155;-84
2022/12/01 02:59:13;;;;;;;2.42;1.30;;;;;;;-1.00;88.94;102558.11;1503848;94;21174;-85
2022/12/01 03:02:04;;;;;;;7.87;1.30;;;;;;;-1.01;90.33;102549.83;1515713;94;21640;-83
2022/12/01 03:04:55;;;;;;;5.25;1.70;;;;;;;-1.03;92.77;102550.44;1514247;94;21132;-84
2022/12/01 03:07:59;;;;;;;4.85;1.77;;;;;;;-0.99;93.33;102545.25;1513987;94;21212;-85
2022/12/01 03:10:48;;;;;;;5.90;1.80;;;;;;;-0.95;92.88;102548.80;1514111;94;21150;-84
2022/12/01 03:13:44;;;;;;;12.30;2.62;;;;;;;-1.01;93.54;102552.48;1514114;94;21116;-84
2022/12/01 03:16:24;;;;;;;6.35;1.57;;;;;;;-0.97;92.33;102543.28;1514312;94;21157;-84
2022/12/01 03:19:09;;;;;;;4.75;1.60;;;;;;;-1.00;93.74;102541.77;1514221;94;21065;-84
2022/12/01 03:21:56;;;;;;;8.73;2.00;;;;;;;-1.02;94.82;102539.73;1546161;91;21098;-84
2022/12/01 03:24:25;;;;;;;4.55;1.30;;;;;;;-0.98;95.52;102537.66;1539702;91;21144;-84
2022/12/01 03:26:56;;;;;;;5.90;1.67;;;;;;;-0.96;94.96;102540.52;1555570;92;22065;-84
2022/12/01 03:29:40;;;;;;;11.30;1.72;;;;;;;-0.96;94.80;102548.95;1556951;90;21549;-84
2022/12/01 03:32:30;;;;;;;5.40;1.70;;;;;;;-0.98;96.44;102537.66;1559993;90;21061;-84
2022/12/01 03:35:17;;;;;;;5.00;1.70;;;;;;;-0.95;96.10;102540.86;1557800;90;21137;-84
2022/12/01 03:37:48;;;;;;;8.50;1.75;;;;;;;-1.01;97.64;102541.41;1565865;91;21211;-84
2022/12/01 03:40:18;;;;;;;9.03;1.98;;;;;;;-0.97;97.78;102548.12;1565973;90;21917;-84
2022/12/01 03:42:52;;;;;;;5.22;1.77;;;;;;;-0.92;96.82;102532.65;1565977;90;21169;-84
2022/12/01 03:45:35;;;;;;;7.22;1.70;;;;;;;-0.93;96.54;102537.59;1564182;90;21081;-84
2022/12/01 03:48:02;;;;;;;8.20;2.15;;;;;;;-1.02;98.32;102545.03;1498925;95;21420;-84
2022/12/01 03:50:52;;;;;;;6.85;1.70;;;;;;;-1.02;100.00;102545.52;1527514;94;21167;-83
2022/12/01 03:53:23;;;;;;;6.78;1.50;;;;;;;-1.03;100.00;102552.63;1527607;94;21570;-84
2022/12/01 03:55:55;;;;;;;10.50;2.17;;;;;;;-1.01;99.60;102550.66;1523469;94;21100;-84
2022/12/01 03:58:26;;;;;;;5.78;1.82;;;;;;;-1.06;100.00;102556.01;1526355;93;21140;-83
2022/12/01 11:48:22;;;;;;;11.10;3.00;;;;;;;3.23;44.49;102361.11;1734764;80;20968;-85
2022/12/01 11:51:02;;;;;;;8.03;2.47;;;;;;;3.11;44.82;102366.45;1733334;80;21119;-85
2022/12/01 11:53:37;;;;;;;8.33;1.98;;;;;;;3.21;44.92;102367.12;1617255;86;21081;-85
2022/12/01 11:56:27;;;;;;;8.35;2.27;;;;;;;3.16;44.34;102366.28;1634274;86;21109;-86
2022/12/01 11:59:09;;;;;;;8.93;2.45;;;;;;;3.26;43.69;102360.77;1636981;86;21091;-86
2022/12/01 12:02:10;;;;;;;8.73;2.20;;;;;;;3.23;43.27;102360.28;1645914;86;21189;-86
2022/12/01 12:05:03;;;;;;;8.48;1.67;;;;;;;3.19;43.12;102372.61;1653525;86;21180;-85
2022/12/01 12:07:50;;;;;;;6.15;2.27;;;;;;;3.22;42.89;102351.47;1639440;85;21096;-86
2022/12/01 12:10:46;;;;;;;12.82;2.83;;;;;;;3.21;42.45;102354.28;1640529;86;21105;-85
2022/12/01 12:13:51;;;;;;;7.92;2.22;;;;;;;3.07;43.46;102367.79;1604911;88;21526;-85
2022/12/01 12:16:34;;;;;;;5.60;2.02;;;;;;;3.09;43.82;102363.97;1605694;88;21570;-86
2022/12/01 12:19:33;;;;;;;11.57;2.95;;;;;;;3.16;42.81;102366.78;1612532;88;21582;-85
2022/12/01 12:22:25;;;;;;;11.00;2.65;;;;;;;3.21;42.28;102351.14;1613688;88;21111;-87
2022/12/01 12:25:04;;;;;;;10.85;2.60;;;;;;;3.14;42.15;102366.11;1614022;88;21174;-86
2022/12/01 12:28:06;;;;;;;17.77;2.37;;;;;;;3.15;42.52;102365.13;1584508;90;21072;-86
2022/12/01 12:30:38;;;;;;;8.68;2.12;;;;;;;3.21;42.88;102350.28;1547841;91;21123;-86
2022/12/01 12:33:52;;;;;;;7.17;1.50;;;;;;;3.18;42.60;102360.30;1494723;94;21313;-87
2022/12/01 12:36:40;;;;;;;14.13;2.33;;;;;;;3.15;41.96;102373.95;1508702;94;21160;-87
2022/12/01 12:39:30;;;;;;;9.08;2.40;;;;;;;3.17;42.06;102367.11;1501894;93;21137;-87
2022/12/01 12:41:57;;;;;;;8.55;2.30;;;;;;;3.15;42.13;102367.30;1499027;94;21780;-85
2022/12/01 12:44:51;;;;;;;5.72;1.90;;;;;;;3.22;41.99;102358.13;1516630;91;21129;-86
2022/12/01 12:47:51;;;;;;;9.23;1.90;;;;;;;3.23;41.83;102369.10;1549037;91;22468;-87
2022/12/01 12:50:23;;;;;;;8.88;2.20;;;;;;;3.10;42.30;102363.45;1502678;94;21196;-85
2022/12/01 12:52:58;;;;;;;10.93;2.70;;;;;;;3.08;42.33;102362.78;1532127;92;21065;-86
2022/12/01 12:55:36;;;;;;;19.73;3.67;;;;;;;3.02;42.94;102364.78;1490702;94;21174;-87
2022/12/01 12:58:11;;;;;;;9.30;2.87;;;;;;;3.00;42.86;102372.09;1493804;95;21625;-86
2022/12/01 13:00:45;;;;;;;13.60;2.58;;;;;;;2.91;43.14;102371.25;1492140;95;21985;-86
2022/12/01 13:03:50;;;;;;;17.73;3.10;;;;;;;2.90;42.92;102366.94;1491067;95;21150;-87
2022/12/01 13:06:28;;;;;;;8.80;3.05;;;;;;;2.80;43.46;102370.27;1539314;91;21528;-88
2022/12/01 13:09:01;;;;;;;8.63;2.45;;;;;;;2.68;43.58;102377.23;1537014;92;21124;-86
2022/12/01 13:11:39;;;;;;;17.98;4.45;;;;;;;2.72;43.29;102374.56;1500001;94;21127;-86
2022/12/01 13:14:27;;;;;;;19.10;4.50;;;;;;;2.59;43.34;102372.89;1500539;94;21698;-86
2022/12/01 13:17:02;;;;;;;19.52;4.42;;;;;;;2.54;43.82;102374.38;1500745;94;21071;-88
2022/12/01 13:19:33;;;;;;;26.02;6.83;;;;;;;2.46;43.98;102383.98;1501955;94;21178;-86
2022/12/01 13:22:03;;;;;;;23.65;5.70;;;;;;;2.41;43.99;102374.81;1501729;94;21133;-86
2022/12/01 13:24:30;;;;;;;24.02;5.30;;;;;;;2.38;43.84;102378.66;1501768;95;21028;-86
2022/12/01 13:27:16;;;;;;;19.23;5.05;;;;;;;2.35;44.08;102379.45;1532287;89;21134;-86
2022/12/01 13:29:52;;;;;;;20.77;4.40;;;;;;;2.36;43.94;102382.47;1565934;91;21134;-86
2022/12/01 13:35:27;;;;;;;13.30;4.60;;;;;;;2.25;43.91;102376.44;1446859;99;21454;-86
2022/12/01 13:37:56;;;;;;;17.12;3.70;;;;;;;2.15;44.22;102382.89;1423746;100;21168;-86
2022/12/01 13:40:27;;;;;;;9.75;3.20;;;;;;;2.04;44.72;102376.02;1407027;100;21234;-86
2022/12/01 13:43:08;;;;;;;20.43;4.45;;;;;;;2.05;44.55;102379.00;1403252;102;21628;-86
2022/12/01 13:45:37;;;;;;;18.77;5.40;;;;;;;2.02;44.86;102389.96;1398751;100;21208;-86
2022/12/01 13:48:08;;;;;;;25.12;5.42;;;;;;;1.95;44.98;102390.27;1386761;99;21148;-86
2022/12/01 17:02:28;;;;;;;11.10;3.62;;;;;;;-0.04;47.91;102383.79;1795118;79;22731;-85
2022/12/01 17:04:54;;;;;;;16.85;2.58;;;;;;;0.02;48.20;102381.05;1756965;81;20888;-85
2022/12/01 17:07:20;;;;;;;12.70;3.02;;;;;;;0.16;48.11;102390.34;1757078;81;21136;-85
2022/12/01 17:09:46;;;;;;;8.65;2.80;;;;;;;0.26;48.27;102372.56;1757295;81;20983;-84
2022/12/01 17:12:12;;;;;;;9.53;2.55;;;;;;;0.43;47.75;102359.00;1757074;81;20924;-86
2022/12/01 17:14:38;;;;;;;9.43;2.55;;;;;;;0.48;47.71;102365.20;1758670;80;20937;-85
2022/12/01 17:17:04;;;;;;;7.75;2.50;;;;;;;0.50;47.76;102375.14;1725782;82;20898;-85
2022/12/01 17:19:30;;;;;;;15.40;3.02;;;;;;;0.59;47.88;102369.80;1783258;80;21924;-85
2022/12/01 17:21:57;;;;;;;34.18;3.90;;;;;;;0.60;47.81;102364.83;1779268;80;21030;-85
2022/12/01 17:24:25;;;;;;;14.58;2.80;;;;;;;0.59;47.76;102371.59;1735563;81;21547;-86
2022/12/01 17:26:51;;;;;;;10.10;2.75;;;;;;;0.63;47.63;102374.31;1744631;82;21018;-85
2022/12/01 17:29:17;;;;;;;6.62;2.52;;;;;;;0.63;47.67;102369.00;1748974;81;21025;-85
2022/12/01 17:31:44;;;;;;;13.03;2.50;;;;;;;0.63;48.01;102375.63;1746687;81;21210;-85
2022/12/01 17:34:14;;;;;;;15.53;2.62;;;;;;;0.61;47.85;102373.11;1765030;80;20942;-86
2022/12/01 17:36:41;;;;;;;9.20;2.47;;;;;;;0.68;47.47;102371.55;1781242;80;21035;-86
2022/12/01 17:39:07;;;;;;;8.23;2.58;;;;;;;0.70;47.74;102371.38;1757357;81;21567;-86
2022/12/01 17:41:35;;;;;;;7.55;2.20;;;;;;;0.59;47.97;102371.12;1757340;81;20980;-86
2022/12/01 17:44:03;;;;;;;9.25;3.22;;;;;;;0.64;47.92;102368.83;1757040;81;21069;-85
2022/12/01 17:46:31;;;;;;;14.45;2.80;;;;;;;0.65;48.11;102377.66;1757099;81;21062;-83
2022/12/01 17:48:58;;;;;;;9.65;2.70;;;;;;;0.68;47.77;102375.53;1737882;81;20988;-84
2022/12/01 17:51:24;;;;;;;6.17;2.45;;;;;;;0.65;47.91;102378.48;1757353;81;21059;-85
2022/12/01 17:53:52;;;;;;;13.03;2.80;;;;;;;0.60;48.30;102377.26;1754207;81;20980;-85
2022/12/01 17:56:18;;;;;;;15.03;2.60;;;;;;;0.65;47.88;102376.33;1757388;81;21287;-84
2022/12/01 17:58:45;;;;;;;10.32;2.80;;;;;;;0.57;48.35;102373.58;1757468;81;20849;-84
2022/12/01 18:01:16;;;;;;;10.78;2.87;;;;;;;0.53;48.44;102374.84;1752081;80;21988;-84
2022/12/01 18:03:43;;;;;;;7.50;2.47;;;;;;;0.53;48.63;102376.17;1738991;80;21550;-85
2022/12/01 18:06:11;;;;;;;10.38;3.17;;;;;;;0.52;48.77;102379.82;1752060;81;21590;-84
2022/12/01 18:08:43;;;;;;;12.43;3.22;;;;;;;0.47;49.11;102374.12;1751799;81;21092;-84
2022/12/01 18:11:13;;;;;;;13.48;3.42;;;;;;;0.50;49.00;102377.80;1752100;81;21047;-84
2022/12/01 18:13:43;;;;;;;12.40;2.72;;;;;;;0.40;49.48;102376.54;1752574;81;21555;-83
2022/12/01 18:16:14;;;;;;;13.10;3.15;;;;;;;0.48;49.44;102379.78;1701073;83;21004;-84
2022/12/01 18:18:40;;;;;;;8.75;2.40;;;;;;;0.36;49.54;102370.70;1705038;84;21059;-85
2022/12/01 18:21:09;;;;;;;10.05;2.58;;;;;;;0.40;49.55;102372.06;1704714;84;21051;-84
2022/12/01 18:23:35;;;;;;;14.80;3.20;;;;;;;0.37;49.83;102366.23;1704563;84;21043;-83
2022/12/01 18:26:08;;;;;;;17.87;3.17;;;;;;;0.32;50.11;102373.79;1659772;84;20971;-84
2022/12/01 18:28:35;;;;;;;25.72;4.05;;;;;;;0.31;50.29;102370.80;1606444;89;27822;-83
2022/12/01 18:31:07;;;;;;;12.82;3.00;;;;;;;0.25;50.58;102370.91;1606439;89;21036;-84
2022/12/01 18:33:37;;;;;;;10.60;2.77;;;;;;;0.29;50.63;102361.66;1602326;89;21086;-85
2022/12/01 18:36:11;;;;;;;14.68;2.65;;;;;;;0.22;50.75;102366.72;1602137;88;21578;-84
2022/12/01 18:38:37;;;;;;;12.23;2.60;;;;;;;0.16;51.13;102365.99;1601826;89;21092;-84
2022/12/01 18:41:03;;;;;;;10.48;2.55;;;;;;;0.26;51.06;102364.61;1601997;89;21101;-84
2022/12/01 18:43:32;;;;;;;8.30;2.12;;;;;;;0.16;51.34;102365.16;1602402;89;21043;-84
2022/12/01 18:45:58;;;;;;;11.57;3.20;;;;;;;0.20;51.34;102362.05;1602309;89;21111;-85
2022/12/01 18:48:25;;;;;;;11.90;2.83;;;;;;;0.14;51.57;102362.64;1601407;89;21043;-84
2022/12/01 18:50:52;;;;;;;9.93;2.52;;;;;;;0.13;51.87;102361.48;1590262;88;21062;-84
2022/12/01 18:53:18;;;;;;;10.88;3.50;;;;;;;0.14;52.08;102363.97;1618427;88;21185;-83
2022/12/01 18:55:44;;;;;;;8.90;2.62;;;;;;;0.13;52.15;102361.48;1618897;88;21093;-84
2022/12/01 18:58:10;;;;;;;12.90;3.17;;;;;;;0.11;52.20;102367.41;1618570;88;21065;-83
2022/12/01 19:00:37;;;;;;;16.95;3.00;;;;;;;0.06;52.41;102373.17;1613512;87;21570;-83
2022/12/01 19:03:03;;;;;;;11.35;2.90;;;;;;;0.06;52.79;102370.98;1592603;90;21598;-84
2022/12/01 19:05:29;;;;;;;9.33;2.62;;;;;;;0.21;52.30;102366.89;1593019;90;21040;-83
2022/12/01 19:07:56;;;;;;;9.58;2.40;;;;;;;0.07;52.72;102373.50;1592862;90;21156;-83
2022/12/01 19:10:23;;;;;;;16.23;2.27;;;;;;;0.03;53.06;102373.47;1592932;90;21142;-83
2022/12/01 19:12:51;;;;;;;10.70;3.00;;;;;;;0.12;52.89;102372.58;1609921;87;21069;-84
2022/12/01 19:15:17;;;;;;;13.38;4.30;;;;;;;0.04;53.16;102375.13;1621847;87;21030;-83
2022/12/01 19:17:43;;;;;;;14.95;4.72;;;;;;;0.06;53.18;102369.20;1643768;87;21078;-84
2022/12/01 19:20:11;;;;;;;19.62;4.95;;;;;;;0.08;53.14;102370.36;1643881;87;21489;-84
2022/12/01 19:22:37;;;;;;;9.73;3.67;;;;;;;0.07;53.33;102378.80;1640027;87;21072;-85
2022/12/01 19:25:04;;;;;;;12.98;3.37;;;;;;;0.07;53.19;102372.67;1625456;86;21560;-84
2022/12/01 19:27:30;;;;;;;12.88;3.30;;;;;;;0.00;53.54;102368.45;1653434;86;21019;-84
2022/12/01 19:29:56;;;;;;;12.73;3.80;;;;;;;0.04;53.47;102375.13;1672540;83;21047;-84
2022/12/01 19:32:23;;;;;;;8.25;2.50;;;;;;;-0.06;53.86;102372.52;1721728;82;21036;-84
2022/12/01 19:34:49;;;;;;;7.53;2.58;;;;;;;0.00;53.72;102371.11;1721759;83;21206;-84
2022/12/01 19:37:14;;;;;;;7.85;2.70;;;;;;;0.04;53.59;102376.95;1721389;82;20884;-84
2022/12/01 19:39:40;;;;;;;7.83;2.40;;;;;;;-0.02;53.77;102374.38;1722019;83;20958;-84
2022/12/01 19:42:06;;;;;;;8.25;2.58;;;;;;;-0.03;53.74;102372.23;1686626;83;21026;-84
2022/12/01 19:44:33;;;;;;;8.20;2.62;;;;;;;-0.07;53.79;102371.33;1688313;83;21095;-84
2022/12/01 19:46:59;;;;;;;9.35;2.92;;;;;;;-0.09;54.02;102379.44;1721746;82;21089;-84
2022/12/01 19:49:25;;;;;;;9.28;2.52;;;;;;;-0.01;53.71;102373.39;1721580;82;20979;-83
2022/12/01 19:51:51;;;;;;;13.75;3.15;;;;;;;-0.05;53.88;102374.67;1721378;82;21039;-84
2022/12/01 19:54:19;;;;;;;8.83;2.70;;;;;;;-0.12;53.94;102380.20;1721779;83;21031;-84
2022/12/01 19:56:45;;;;;;;8.45;2.35;;;;;;;-0.12;54.07;102381.52;1721703;83;21614;-84
2022/12/01 19:59:13;;;;;;;8.93;2.72;;;;;;;-0.15;54.21;102386.61;1721575;83;21066;-85
2022/12/01 20:01:40;;;;;;;9.10;2.75;;;;;;;-0.16;54.34;102390.25;1731807;80;21026;-83
2022/12/01 20:04:07;;;;;;;11.57;2.75;;;;;;;-0.18;54.27;102382.10;1738207;81;21077;-83
2022/12/01 20:06:36;;;;;;;6.67;2.27;;;;;;;-0.21;54.48;102377.09;1737808;81;21491;-84
2022/12/01 20:09:06;;;;;;;9.10;2.40;;;;;;;-0.27;54.62;102389.09;1737984;82;21046;-84
2022/12/01 20:11:33;;;;;;;8.23;2.12;;;;;;;-0.24;54.67;102379.53;1737991;82;21478;-84
2022/12/01 20:14:03;;;;;;;9.50;2.20;;;;;;;-0.32;54.69;102384.25;1737569;81;20999;-84
2022/12/01 20:16:30;;;;;;;7.83;2.47;;;;;;;-0.41;54.99;102386.90;1715558;82;21029;-83
2022/12/01 20:19:01;;;;;;;8.73;2.10;;;;;;;-0.37;54.69;102391.78;1721572;83;21539;-84
2022/12/01 20:21:34;;;;;;;11.90;2.27;;;;;;;-0.35;54.65;102390.33;1721801;83;21090;-83
2022/12/01 20:24:05;;;;;;;8.48;2.15;;;;;;;-0.36;54.73;102388.64;1719769;83;21115;-83
2022/12/01 20:26:36;;;;;;;6.58;2.15;;;;;;;-0.33;54.56;102384.38;1637722;87;21070;-84
2022/12/01 20:29:07;;;;;;;12.25;2.22;;;;;;;-0.50;55.06;102380.64;1591556;89;21154;-84
2022/12/01 20:31:34;;;;;;;10.95;2.15;;;;;;;-0.47;54.86;102393.14;1573257;90;21069;-83
2022/12/01 20:34:05;;;;;;;5.37;2.05;;;;;;;-0.58;55.23;102395.11;1594086;90;21573;-84
2022/12/01 20:36:31;;;;;;;6.90;2.05;;;;;;;-0.58;55.23;102384.02;1594107;88;21176;-83
2022/12/01 20:38:57;;;;;;;7.10;2.55;;;;;;;-0.54;55.03;102380.59;1594265;90;20999;-83
2022/12/01 20:41:23;;;;;;;7.70;2.17;;;;;;;-0.62;55.16;102394.53;1594209;88;21110;-83
2022/12/01 20:43:49;;;;;;;7.35;2.00;;;;;;;-0.65;55.41;102391.34;1594062;90;20939;-83
2022/12/01 20:46:16;;;;;;;7.42;2.08;;;;;;;-0.63;55.46;102386.75;1569282;88;21163;-83
2022/12/01 20:48:42;;;;;;;6.22;1.92;;;;;;;-0.65;55.66;102397.95;1594202;90;21253;-83
2022/12/01 20:51:12;;;;;;;8.10;2.10;;;;;;;-0.72;55.75;102396.37;1594047;90;21039;-83
2022/12/01 20:53:38;;;;;;;8.78;2.45;;;;;;;-0.73;55.63;102396.03;1594082;90;21590;-83
2022/12/01 20:56:08;;;;;;;6.53;2.47;;;;;;;-0.73;55.82;102398.68;1594107;90;21611;-82
2022/12/01 20:58:35;;;;;;;8.75;2.27;;;;;;;-0.76;55.99;102388.38;1593926;90;21089;-83
2022/12/01 21:01:11;;;;;;;8.05;2.05;;;;;;;-0.77;56.14;102395.45;1595048;88;21164;-83
2022/12/01 21:03:39;;;;;;;7.17;2.00;;;;;;;-0.84;56.28;102397.50;1593572;90;20999;-82
2022/12/01 21:06:07;;;;;;;6.65;1.90;;;;;;;-0.82;56.43;102399.03;1595146;90;21074;-82
2022/12/01 21:08:36;;;;;;;6.60;2.10;;;;;;;-0.85;56.30;102395.34;1595220;90;21051;-82
2022/12/01 21:13:37;;;;;;;10.23;2.35;;;;;;;-0.88;56.83;102394.77;1574837;90;21522;-82
2022/12/01 21:13:47;;;;;;;6.28;2.40;;;;;;;-0.75;56.23;102392.68;1602176;88;21093;-83
2022/12/01 21:16:32;;;;;;;8.50;2.10;;;;;;;-0.81;56.28;102398.05;1615146;87;21086;-82
2022/12/01 21:21:34;;;;;;;9.10;2.10;;;;;;;-0.89;56.51;102394.42;1514812;94;21104;-82
2022/12/01 21:24:13;;;;;;;9.55;2.50;;;;;;;-0.96;56.88;102388.86;1515226;94;21145;-83
2022/12/01 21:26:46;;;;;;;8.30;2.92;;;;;;;-0.93;56.92;102397.35;1493560;94;21201;-83
2022/12/01 21:29:24;;;;;;;12.47;2.90;;;;;;;-0.94;57.04;102393.05;1516252;93;21004;-82
2022/12/01 21:31:54;;;;;;;8.48;2.27;;;;;;;-0.97;57.16;102394.65;1538963;93;21083;-82
2022/12/01 21:34:26;;;;;;;5.60;1.85;;;;;;;-1.06;57.38;102395.48;1539441;93;21138;-82
2022/12/01 21:36:56;;;;;;;9.20;2.67;;;;;;;-1.05;57.59;102395.83;1539412;93;21102;-83
2022/12/01 21:39:25;;;;;;;6.85;2.42;;;;;;;-1.09;57.80;102393.09;1539277;91;21108;-82
2022/12/01 21:41:55;;;;;;;10.28;2.72;;;;;;;-0.99;57.59;102394.44;1538983;93;21087;-83
2022/12/01 21:44:23;;;;;;;8.18;2.67;;;;;;;-1.10;57.95;102394.08;1539207;93;21638;-82
2022/12/01 21:46:54;;;;;;;8.95;2.70;;;;;;;-1.12;58.17;102389.40;1539210;91;21086;-83
2022/12/01 21:49:25;;;;;;;7.28;2.42;;;;;;;-1.14;58.45;102386.08;1539520;93;21395;-83
2022/12/01 21:51:54;;;;;;;9.80;3.05;;;;;;;-1.17;58.84;102389.00;1496040;95;21120;-83
2022/12/01 21:54:21;;;;;;;10.25;2.47;;;;;;;-1.13;58.91;102381.12;1498598;95;21278;-82
2022/12/01 21:56:55;;;;;;;10.40;3.10;;;;;;;-1.13;59.00;102382.45;1498713;95;21212;-83
2022/12/01 21:59:23;;;;;;;6.17;2.58;;;;;;;-1.13;58.96;102381.62;1493961;95;21160;-83
2022/12/01 22:01:55;;;;;;;7.87;2.50;;;;;;;-1.16;59.26;102377.44;1498945;95;21199;-83
2022/12/01 22:04:26;;;;;;;6.67;2.33;;;;;;;-1.19;59.37;102383.00;1499156;95;21135;-83
2022/12/01 22:06:54;;;;;;;14.25;2.65;;;;;;;-1.22;59.77;102377.50;1498788;95;21854;-82
2022/12/01 22:09:33;;;;;;;6.00;2.00;;;;;;;-1.24;59.88;102377.28;1498561;95;21696;-82
2022/12/01 22:12:11;;;;;;;5.45;2.08;;;;;;;-1.23;60.08;102375.00;1457291;98;21196;-82
2022/12/01 22:14:37;;;;;;;7.70;2.02;;;;;;;-1.28;60.18;102376.73;1457590;98;21085;-82
2022/12/01 22:17:12;;;;;;;8.53;2.67;;;;;;;-1.24;59.95;102382.57;1457405;98;21151;-82
2022/12/01 22:19:43;;;;;;;5.85;2.50;;;;;;;-1.27;60.36;102388.97;1548129;92;21637;-82
2022/12/01 22:22:14;;;;;;;14.15;2.95;;;;;;;-1.32;60.62;102379.77;1549089;92;21555;-82
2022/12/01 22:24:47;;;;;;;9.78;2.50;;;;;;;-1.32;60.69;102381.95;1546231;92;21135;-82
2022/12/01 22:27:39;;;;;;;13.25;3.40;;;;;;;-1.37;61.26;102380.20;1549104;92;21183;-82
2022/12/01 22:30:10;;;;;;;7.95;2.67;;;;;;;-1.36;61.48;102376.58;1590373;89;21857;-81
2022/12/01 22:32:50;;;;;;;9.38;2.70;;;;;;;-1.40;61.82;102380.48;1602102;89;21130;-82
2022/12/01 22:35:31;;;;;;;6.62;2.37;;;;;;;-1.46;62.08;102379.70;1602259;89;21075;-82
2022/12/01 22:38:11;;;;;;;7.72;2.55;;;;;;;-1.48;62.46;102380.31;1600031;89;21090;-83
2022/12/01 22:40:50;;;;;;;9.40;2.90;;;;;;;-1.51;62.97;102384.06;1577092;91;21093;-82
2022/12/01 22:43:27;;;;;;;7.42;2.65;;;;;;;-1.53;63.08;102385.16;1575205;91;21375;-82
2022/12/01 22:46:07;;;;;;;10.13;2.35;;;;;;;-1.57;63.48;102382.45;1576962;91;21081;-83
2022/12/01 22:48:43;;;;;;;8.65;2.67;;;;;;;-1.63;64.26;102390.44;1582005;90;21109;-82
2022/12/01 22:51:26;;;;;;;7.92;2.87;;;;;;;-1.63;64.77;102385.16;1581932;90;21131;-82
2022/12/01 22:54:15;;;;;;;10.00;3.00;;;;;;;-1.64;64.88;102388.78;1582335;90;21074;-82
2022/12/01 22:56:44;;;;;;;12.10;3.27;;;;;;;-1.59;65.10;102387.86;1582471;90;21360;-82
2022/12/01 22:59:18;;;;;;;10.35;2.80;;;;;;;-1.62;65.50;102397.38;1582139;90;21074;-82